X  Fermer Données météorologiques d'aviation de Metar     KDNN Dalton Municipal Airport
Température
91°F Température
66°F Point de rosée
44% Humidité



Vent
0 MPH
0 KM/H
0 M/S
0 KTS



Calme
N
Conditions actuelles

Clair Clair
Pression 1014.22 (hPa) - 29.95 (inHg)
Visibilité 10 (mile) - 16.1 (km)
Aéroport
Code de l'aéroport KDNN

Emplacement: Dalton Municipal Airport
Distance: 34 (mi)

Metar:
KDNN 152235Z AUTO 00000KT 10SM CLR 33/19 A2995 RMK AO2 T03340187

Temps: 06-15-2024 18:35 EDT